sensor_id;sensor_type;location;lat;lon;timestamp;P1;durP1;ratioP1;P2;durP2;ratioP2
1136;SDS011;557;48.466;7.950;2023-03-29T00:02:17;7.37;;;6.97;;
1136;SDS011;557;48.466;7.950;2023-03-29T00:05:05;7.17;;;6.77;;
1136;SDS011;557;48.466;7.950;2023-03-29T00:07:53;6.87;;;6.47;;
1136;SDS011;557;48.466;7.950;2023-03-29T00:10:47;7.23;;;6.83;;
1136;SDS011;557;48.466;7.950;2023-03-29T00:13:37;7.03;;;6.60;;
1136;SDS011;557;48.466;7.950;2023-03-29T00:16:25;7.50;;;7.00;;
1136;SDS011;557;48.466;7.950;2023-03-29T00:19:12;7.27;;;6.87;;
1136;SDS011;557;48.466;7.950;2023-03-29T00:22:00;7.73;;;7.33;;
1136;SDS011;557;48.466;7.950;2023-03-29T00:24:47;8.60;;;7.90;;
1136;SDS011;557;48.466;7.950;2023-03-29T00:27:38;8.33;;;7.83;;
1136;SDS011;557;48.466;7.950;2023-03-29T00:30:27;8.13;;;7.70;;
1136;SDS011;557;48.466;7.950;2023-03-29T00:33:15;8.97;;;8.30;;
1136;SDS011;557;48.466;7.950;2023-03-29T00:36:03;8.43;;;7.93;;
1136;SDS011;557;48.466;7.950;2023-03-29T00:38:54;8.87;;;8.27;;
1136;SDS011;557;48.466;7.950;2023-03-29T00:41:43;8.60;;;8.10;;
1136;SDS011;557;48.466;7.950;2023-03-29T00:47:45;9.60;;;8.80;;
1136;SDS011;557;48.466;7.950;2023-03-29T00:50:37;9.60;;;9.00;;
1136;SDS011;557;48.466;7.950;2023-03-29T00:53:28;8.53;;;8.13;;
1136;SDS011;557;48.466;7.950;2023-03-29T00:56:20;8.40;;;7.90;;
1136;SDS011;557;48.466;7.950;2023-03-29T00:59:12;8.37;;;7.97;;
1136;SDS011;557;48.466;7.950;2023-03-29T01:02:03;8.03;;;7.50;;
1136;SDS011;557;48.466;7.950;2023-03-29T01:04:54;8.17;;;7.47;;
1136;SDS011;557;48.466;7.950;2023-03-29T01:07:44;8.00;;;7.50;;
1136;SDS011;557;48.466;7.950;2023-03-29T01:10:38;6.90;;;6.50;;
1136;SDS011;557;48.466;7.950;2023-03-29T01:13:31;7.40;;;6.97;;
1136;SDS011;557;48.466;7.950;2023-03-29T01:16:23;7.50;;;7.10;;
1136;SDS011;557;48.466;7.950;2023-03-29T01:19:15;8.20;;;7.70;;
1136;SDS011;557;48.466;7.950;2023-03-29T01:22:08;7.93;;;7.53;;
1136;SDS011;557;48.466;7.950;2023-03-29T01:25:04;7.57;;;7.20;;
1136;SDS011;557;48.466;7.950;2023-03-29T01:28:00;7.60;;;7.30;;
1136;SDS011;557;48.466;7.950;2023-03-29T01:30:50;7.87;;;7.47;;
1136;SDS011;557;48.466;7.950;2023-03-29T01:33:42;7.97;;;7.50;;
1136;SDS011;557;48.466;7.950;2023-03-29T01:36:35;8.20;;;7.80;;
1136;SDS011;557;48.466;7.950;2023-03-29T01:39:28;8.30;;;7.90;;
1136;SDS011;557;48.466;7.950;2023-03-29T01:42:26;8.83;;;8.33;;
1136;SDS011;557;48.466;7.950;2023-03-29T01:45:21;8.23;;;7.80;;
1136;SDS011;557;48.466;7.950;2023-03-29T01:48:12;8.37;;;7.97;;
1136;SDS011;557;48.466;7.950;2023-03-29T01:51:06;8.90;;;8.30;;
1136;SDS011;557;48.466;7.950;2023-03-29T01:53:57;8.70;;;8.20;;
1136;SDS011;557;48.466;7.950;2023-03-29T01:56:48;8.10;;;7.50;;
1136;SDS011;557;48.466;7.950;2023-03-29T01:59:38;7.43;;;7.13;;
1136;SDS011;557;48.466;7.950;2023-03-29T02:02:29;7.50;;;7.20;;
1136;SDS011;557;48.466;7.950;2023-03-29T02:05:17;7.97;;;7.30;;
1136;SDS011;557;48.466;7.950;2023-03-29T02:08:09;7.20;;;6.80;;
1136;SDS011;557;48.466;7.950;2023-03-29T02:10:59;7.70;;;7.00;;
1136;SDS011;557;48.466;7.950;2023-03-29T02:13:46;6.70;;;6.30;;
1136;SDS011;557;48.466;7.950;2023-03-29T02:16:33;6.80;;;6.10;;
1136;SDS011;557;48.466;7.950;2023-03-29T02:19:23;6.63;;;6.23;;
1136;SDS011;557;48.466;7.950;2023-03-29T02:22:12;6.80;;;6.10;;
1136;SDS011;557;48.466;7.950;2023-03-29T02:25:01;5.60;;;5.30;;
1136;SDS011;557;48.466;7.950;2023-03-29T02:27:52;6.03;;;5.60;;
1136;SDS011;557;48.466;7.950;2023-03-29T02:30:41;5.50;;;5.20;;
1136;SDS011;557;48.466;7.950;2023-03-29T02:33:37;5.30;;;5.00;;
1136;SDS011;557;48.466;7.950;2023-03-29T02:36:29;5.37;;;5.07;;
1136;SDS011;557;48.466;7.950;2023-03-29T02:39:25;6.17;;;5.60;;
1136;SDS011;557;48.466;7.950;2023-03-29T02:42:13;5.30;;;5.00;;
1136;SDS011;557;48.466;7.950;2023-03-29T02:45:02;5.27;;;4.97;;
1136;SDS011;557;48.466;7.950;2023-03-29T02:47:51;5.53;;;5.20;;
1136;SDS011;557;48.466;7.950;2023-03-29T02:50:41;6.00;;;5.60;;
1136;SDS011;557;48.466;7.950;2023-03-29T02:53:36;5.97;;;5.67;;
1136;SDS011;557;48.466;7.950;2023-03-29T02:56:28;5.90;;;5.60;;
1136;SDS011;557;48.466;7.950;2023-03-29T02:59:16;5.77;;;5.43;;
1136;SDS011;557;48.466;7.950;2023-03-29T03:02:05;5.80;;;5.40;;
1136;SDS011;557;48.466;7.950;2023-03-29T03:04:52;5.77;;;5.37;;
1136;SDS011;557;48.466;7.950;2023-03-29T03:07:40;5.83;;;5.53;;
1136;SDS011;557;48.466;7.950;2023-03-29T03:10:28;6.40;;;6.00;;
1136;SDS011;557;48.466;7.950;2023-03-29T03:13:17;6.47;;;6.07;;
1136;SDS011;557;48.466;7.950;2023-03-29T03:16:05;6.97;;;6.60;;
1136;SDS011;557;48.466;7.950;2023-03-29T03:18:53;8.33;;;6.60;;
1136;SDS011;557;48.466;7.950;2023-03-29T03:21:41;6.43;;;6.07;;
1136;SDS011;557;48.466;7.950;2023-03-29T03:24:28;6.57;;;6.17;;
1136;SDS011;557;48.466;7.950;2023-03-29T03:27:18;6.73;;;6.23;;
1136;SDS011;557;48.466;7.950;2023-03-29T03:30:06;6.87;;;6.50;;
1136;SDS011;557;48.466;7.950;2023-03-29T03:32:54;6.97;;;6.57;;
1136;SDS011;557;48.466;7.950;2023-03-29T03:35:42;6.30;;;6.00;;
1136;SDS011;557;48.466;7.950;2023-03-29T03:38:30;6.83;;;6.47;;
1136;SDS011;557;48.466;7.950;2023-03-29T03:41:18;6.37;;;6.00;;
1136;SDS011;557;48.466;7.950;2023-03-29T03:44:07;6.97;;;6.47;;
1136;SDS011;557;48.466;7.950;2023-03-29T03:46:54;7.50;;;7.10;;
1136;SDS011;557;48.466;7.950;2023-03-29T03:49:41;7.20;;;6.90;;
1136;SDS011;557;48.466;7.950;2023-03-29T03:52:29;7.90;;;7.40;;
1136;SDS011;557;48.466;7.950;2023-03-29T03:55:16;7.70;;;7.30;;
1136;SDS011;557;48.466;7.950;2023-03-29T03:58:03;7.60;;;7.20;;
1136;SDS011;557;48.466;7.950;2023-03-29T04:00:53;7.70;;;7.30;;
1136;SDS011;557;48.466;7.950;2023-03-29T04:03:40;7.57;;;7.17;;
1136;SDS011;557;48.466;7.950;2023-03-29T04:06:27;7.77;;;7.33;;
1136;SDS011;557;48.466;7.950;2023-03-29T04:09:15;7.47;;;7.07;;
1136;SDS011;557;48.466;7.950;2023-03-29T04:12:04;7.37;;;6.97;;
1136;SDS011;557;48.466;7.950;2023-03-29T04:14:52;7.27;;;6.80;;
1136;SDS011;557;48.466;7.950;2023-03-29T04:17:41;7.80;;;7.40;;
1136;SDS011;557;48.466;7.950;2023-03-29T04:20:28;7.63;;;7.13;;
1136;SDS011;557;48.466;7.950;2023-03-29T04:23:16;7.33;;;6.93;;
1136;SDS011;557;48.466;7.950;2023-03-29T04:26:03;7.50;;;7.00;;
1136;SDS011;557;48.466;7.950;2023-03-29T04:28:52;7.43;;;7.03;;
1136;SDS011;557;48.466;7.950;2023-03-29T04:31:39;7.37;;;6.87;;
1136;SDS011;557;48.466;7.950;2023-03-29T04:34:28;7.50;;;7.00;;
1136;SDS011;557;48.466;7.950;2023-03-29T04:37:15;6.53;;;6.13;;
1136;SDS011;557;48.466;7.950;2023-03-29T04:40:06;6.43;;;6.03;;
1136;SDS011;557;48.466;7.950;2023-03-29T04:42:58;6.30;;;5.90;;
1136;SDS011;557;48.466;7.950;2023-03-29T04:45:46;5.80;;;5.40;;
1136;SDS011;557;48.466;7.950;2023-03-29T04:48:34;5.40;;;5.00;;
1136;SDS011;557;48.466;7.950;2023-03-29T04:51:23;5.43;;;5.03;;
1136;SDS011;557;48.466;7.950;2023-03-29T04:54:10;9.33;;;5.53;;
1136;SDS011;557;48.466;7.950;2023-03-29T04:56:58;5.90;;;5.30;;
1136;SDS011;557;48.466;7.950;2023-03-29T04:59:45;4.53;;;4.13;;
1136;SDS011;557;48.466;7.950;2023-03-29T05:02:32;4.43;;;3.97;;
1136;SDS011;557;48.466;7.950;2023-03-29T05:05:19;3.73;;;3.43;;
1136;SDS011;557;48.466;7.950;2023-03-29T05:08:08;3.87;;;2.80;;
1136;SDS011;557;48.466;7.950;2023-03-29T05:10:56;3.27;;;2.97;;
1136;SDS011;557;48.466;7.950;2023-03-29T05:13:44;3.03;;;2.73;;
1136;SDS011;557;48.466;7.950;2023-03-29T05:16:31;3.83;;;2.97;;
1136;SDS011;557;48.466;7.950;2023-03-29T05:19:19;2.80;;;2.60;;
1136;SDS011;557;48.466;7.950;2023-03-29T05:22:06;3.00;;;2.40;;
1136;SDS011;557;48.466;7.950;2023-03-29T05:24:55;3.70;;;2.50;;
1136;SDS011;557;48.466;7.950;2023-03-29T05:27:43;2.63;;;2.23;;
1136;SDS011;557;48.466;7.950;2023-03-29T05:30:31;3.47;;;2.43;;
1136;SDS011;557;48.466;7.950;2023-03-29T05:33:18;2.90;;;2.47;;
1136;SDS011;557;48.466;7.950;2023-03-29T05:36:06;3.23;;;1.90;;
1136;SDS011;557;48.466;7.950;2023-03-29T05:38:55;4.30;;;2.37;;
1136;SDS011;557;48.466;7.950;2023-03-29T05:41:46;2.43;;;2.17;;
1136;SDS011;557;48.466;7.950;2023-03-29T05:44:39;5.63;;;2.80;;
1136;SDS011;557;48.466;7.950;2023-03-29T05:47:27;3.70;;;1.90;;
1136;SDS011;557;48.466;7.950;2023-03-29T05:50:14;3.50;;;1.93;;
1136;SDS011;557;48.466;7.950;2023-03-29T05:53:02;3.57;;;1.90;;
1136;SDS011;557;48.466;7.950;2023-03-29T05:55:49;3.80;;;2.20;;
1136;SDS011;557;48.466;7.950;2023-03-29T05:58:38;3.43;;;2.30;;
1136;SDS011;557;48.466;7.950;2023-03-29T06:01:25;2.80;;;1.87;;
1136;SDS011;557;48.466;7.950;2023-03-29T06:04:13;5.10;;;1.60;;
1136;SDS011;557;48.466;7.950;2023-03-29T06:07:02;3.87;;;2.20;;
1136;SDS011;557;48.466;7.950;2023-03-29T06:09:50;6.63;;;2.43;;
1136;SDS011;557;48.466;7.950;2023-03-29T06:12:37;3.30;;;2.20;;
1136;SDS011;557;48.466;7.950;2023-03-29T06:15:26;5.43;;;2.23;;
1136;SDS011;557;48.466;7.950;2023-03-29T06:18:14;8.30;;;3.03;;
1136;SDS011;557;48.466;7.950;2023-03-29T06:21:01;3.30;;;2.37;;
1136;SDS011;557;48.466;7.950;2023-03-29T06:23:49;2.77;;;1.73;;
1136;SDS011;557;48.466;7.950;2023-03-29T06:26:36;4.57;;;2.83;;
1136;SDS011;557;48.466;7.950;2023-03-29T06:29:23;2.60;;;2.20;;
1136;SDS011;557;48.466;7.950;2023-03-29T06:32:12;3.53;;;2.10;;
1136;SDS011;557;48.466;7.950;2023-03-29T06:34:59;3.30;;;2.30;;
1136;SDS011;557;48.466;7.950;2023-03-29T06:37:47;3.00;;;2.53;;
1136;SDS011;557;48.466;7.950;2023-03-29T06:40:34;5.23;;;2.70;;
1136;SDS011;557;48.466;7.950;2023-03-29T06:43:22;2.83;;;2.20;;
1136;SDS011;557;48.466;7.950;2023-03-29T06:46:10;2.53;;;2.03;;
1136;SDS011;557;48.466;7.950;2023-03-29T06:48:59;3.80;;;2.47;;
1136;SDS011;557;48.466;7.950;2023-03-29T06:51:46;3.77;;;2.33;;
1136;SDS011;557;48.466;7.950;2023-03-29T06:54:34;4.33;;;3.07;;
1136;SDS011;557;48.466;7.950;2023-03-29T06:57:21;3.57;;;2.50;;
1136;SDS011;557;48.466;7.950;2023-03-29T07:00:09;4.00;;;2.60;;
1136;SDS011;557;48.466;7.950;2023-03-29T07:03:03;5.13;;;2.90;;
1136;SDS011;557;48.466;7.950;2023-03-29T07:05:58;6.30;;;2.60;;
1136;SDS011;557;48.466;7.950;2023-03-29T07:08:48;6.43;;;2.73;;
1136;SDS011;557;48.466;7.950;2023-03-29T07:11:36;4.40;;;2.97;;
1136;SDS011;557;48.466;7.950;2023-03-29T07:14:25;4.77;;;2.90;;
1136;SDS011;557;48.466;7.950;2023-03-29T07:17:15;6.00;;;2.57;;
1136;SDS011;557;48.466;7.950;2023-03-29T07:20:03;3.70;;;2.87;;
1136;SDS011;557;48.466;7.950;2023-03-29T07:22:54;5.77;;;2.30;;
1136;SDS011;557;48.466;7.950;2023-03-29T07:25:42;3.20;;;2.60;;
1136;SDS011;557;48.466;7.950;2023-03-29T07:28:30;2.80;;;2.30;;
1136;SDS011;557;48.466;7.950;2023-03-29T07:31:18;4.70;;;2.60;;
1136;SDS011;557;48.466;7.950;2023-03-29T07:34:05;4.13;;;2.70;;
1136;SDS011;557;48.466;7.950;2023-03-29T07:36:55;4.00;;;2.50;;
1136;SDS011;557;48.466;7.950;2023-03-29T07:39:45;3.67;;;3.17;;
1136;SDS011;557;48.466;7.950;2023-03-29T07:42:32;5.17;;;3.20;;
1136;SDS011;557;48.466;7.950;2023-03-29T07:45:21;4.40;;;2.77;;
1136;SDS011;557;48.466;7.950;2023-03-29T07:48:10;3.53;;;2.97;;
1136;SDS011;557;48.466;7.950;2023-03-29T07:50:58;6.50;;;2.83;;
1136;SDS011;557;48.466;7.950;2023-03-29T07:53:46;3.00;;;2.70;;
1136;SDS011;557;48.466;7.950;2023-03-29T07:56:35;5.93;;;3.80;;
1136;SDS011;557;48.466;7.950;2023-03-29T07:59:22;4.50;;;4.10;;
1136;SDS011;557;48.466;7.950;2023-03-29T08:02:09;4.50;;;4.20;;
1136;SDS011;557;48.466;7.950;2023-03-29T08:04:57;5.27;;;4.87;;
1136;SDS011;557;48.466;7.950;2023-03-29T08:07:45;5.33;;;4.93;;
1136;SDS011;557;48.466;7.950;2023-03-29T08:10:34;5.87;;;5.47;;
1136;SDS011;557;48.466;7.950;2023-03-29T08:13:25;5.70;;;5.30;;
1136;SDS011;557;48.466;7.950;2023-03-29T08:16:12;6.13;;;5.63;;
1136;SDS011;557;48.466;7.950;2023-03-29T08:19:00;5.90;;;5.60;;
1136;SDS011;557;48.466;7.950;2023-03-29T08:21:47;6.03;;;5.63;;
1136;SDS011;557;48.466;7.950;2023-03-29T08:24:35;6.20;;;5.80;;
1136;SDS011;557;48.466;7.950;2023-03-29T08:27:22;6.73;;;6.33;;
1136;SDS011;557;48.466;7.950;2023-03-29T08:30:11;7.17;;;6.30;;
1136;SDS011;557;48.466;7.950;2023-03-29T08:32:59;6.80;;;6.30;;
1136;SDS011;557;48.466;7.950;2023-03-29T08:35:46;7.13;;;6.53;;
1136;SDS011;557;48.466;7.950;2023-03-29T08:38:33;6.73;;;6.33;;
1136;SDS011;557;48.466;7.950;2023-03-29T08:41:24;7.03;;;6.63;;
1136;SDS011;557;48.466;7.950;2023-03-29T08:44:21;6.93;;;6.47;;
1136;SDS011;557;48.466;7.950;2023-03-29T08:47:27;7.43;;;6.93;;
1136;SDS011;557;48.466;7.950;2023-03-29T08:50:22;7.13;;;6.63;;
1136;SDS011;557;48.466;7.950;2023-03-29T08:53:17;7.50;;;7.10;;
1136;SDS011;557;48.466;7.950;2023-03-29T08:56:10;7.80;;;7.30;;
1136;SDS011;557;48.466;7.950;2023-03-29T08:59:00;7.90;;;7.50;;
1136;SDS011;557;48.466;7.950;2023-03-29T09:01:49;8.27;;;7.87;;
1136;SDS011;557;48.466;7.950;2023-03-29T09:04:40;8.80;;;8.17;;
1136;SDS011;557;48.466;7.950;2023-03-29T09:07:28;8.97;;;8.47;;
1136;SDS011;557;48.466;7.950;2023-03-29T09:10:15;9.33;;;8.73;;
1136;SDS011;557;48.466;7.950;2023-03-29T09:13:09;9.33;;;8.80;;
1136;SDS011;557;48.466;7.950;2023-03-29T09:16:10;9.53;;;8.73;;
1136;SDS011;557;48.466;7.950;2023-03-29T09:19:11;9.10;;;8.60;;
1136;SDS011;557;48.466;7.950;2023-03-29T09:22:10;9.20;;;8.60;;
1136;SDS011;557;48.466;7.950;2023-03-29T09:25:08;9.40;;;8.80;;
1136;SDS011;557;48.466;7.950;2023-03-29T09:28:08;9.87;;;9.23;;
1136;SDS011;557;48.466;7.950;2023-03-29T09:31:04;9.97;;;9.40;;
1136;SDS011;557;48.466;7.950;2023-03-29T09:33:58;9.90;;;9.20;;
1136;SDS011;557;48.466;7.950;2023-03-29T09:36:50;9.37;;;8.87;;
1136;SDS011;557;48.466;7.950;2023-03-29T09:39:40;10.57;;;9.87;;
1136;SDS011;557;48.466;7.950;2023-03-29T09:42:27;10.80;;;10.00;;
1136;SDS011;557;48.466;7.950;2023-03-29T09:45:16;9.93;;;9.33;;
1136;SDS011;557;48.466;7.950;2023-03-29T09:48:05;10.10;;;9.43;;
1136;SDS011;557;48.466;7.950;2023-03-29T09:50:57;9.57;;;9.07;;
1136;SDS011;557;48.466;7.950;2023-03-29T09:53:46;10.20;;;9.70;;
1136;SDS011;557;48.466;7.950;2023-03-29T09:56:34;9.90;;;9.40;;
1136;SDS011;557;48.466;7.950;2023-03-29T09:59:22;10.90;;;10.20;;
1136;SDS011;557;48.466;7.950;2023-03-29T10:02:10;10.03;;;9.50;;
1136;SDS011;557;48.466;7.950;2023-03-29T10:05:02;10.00;;;9.40;;
1136;SDS011;557;48.466;7.950;2023-03-29T10:07:51;9.60;;;9.10;;
1136;SDS011;557;48.466;7.950;2023-03-29T10:10:39;11.27;;;10.57;;
1136;SDS011;557;48.466;7.950;2023-03-29T10:13:29;11.00;;;10.50;;
1136;SDS011;557;48.466;7.950;2023-03-29T10:16:19;10.63;;;10.13;;
1136;SDS011;557;48.466;7.950;2023-03-29T10:19:15;11.90;;;11.17;;
1136;SDS011;557;48.466;7.950;2023-03-29T10:22:06;10.97;;;10.47;;
1136;SDS011;557;48.466;7.950;2023-03-29T10:25:02;11.40;;;10.90;;
1136;SDS011;557;48.466;7.950;2023-03-29T10:27:50;11.00;;;10.50;;
1136;SDS011;557;48.466;7.950;2023-03-29T10:30:41;11.30;;;10.70;;
1136;SDS011;557;48.466;7.950;2023-03-29T10:33:33;10.90;;;10.30;;
1136;SDS011;557;48.466;7.950;2023-03-29T10:36:21;10.67;;;10.07;;
1136;SDS011;557;48.466;7.950;2023-03-29T10:39:13;10.60;;;10.00;;
1136;SDS011;557;48.466;7.950;2023-03-29T10:42:02;10.57;;;10.07;;
1136;SDS011;557;48.466;7.950;2023-03-29T10:44:53;11.43;;;10.77;;
1136;SDS011;557;48.466;7.950;2023-03-29T10:47:44;11.50;;;10.90;;
1136;SDS011;557;48.466;7.950;2023-03-29T10:50:34;10.83;;;10.33;;
1136;SDS011;557;48.466;7.950;2023-03-29T10:53:28;11.20;;;10.57;;
1136;SDS011;557;48.466;7.950;2023-03-29T10:56:24;11.23;;;10.70;;
1136;SDS011;557;48.466;7.950;2023-03-29T10:59:21;11.70;;;11.10;;
1136;SDS011;557;48.466;7.950;2023-03-29T11:02:24;11.63;;;11.13;;
1136;SDS011;557;48.466;7.950;2023-03-29T11:05:42;12.13;;;11.53;;
1136;SDS011;557;48.466;7.950;2023-03-29T11:08:53;11.90;;;11.40;;
1136;SDS011;557;48.466;7.950;2023-03-29T11:11:46;12.10;;;11.60;;
1136;SDS011;557;48.466;7.950;2023-03-29T11:14:51;11.47;;;10.97;;
1136;SDS011;557;48.466;7.950;2023-03-29T11:17:51;11.60;;;11.00;;
1136;SDS011;557;48.466;7.950;2023-03-29T11:20:44;12.30;;;11.70;;
1136;SDS011;557;48.466;7.950;2023-03-29T11:23:39;12.20;;;11.60;;
1136;SDS011;557;48.466;7.950;2023-03-29T11:26:34;11.90;;;11.40;;
1136;SDS011;557;48.466;7.950;2023-03-29T11:29:33;12.83;;;12.10;;
1136;SDS011;557;48.466;7.950;2023-03-29T11:32:28;12.10;;;11.50;;
1136;SDS011;557;48.466;7.950;2023-03-29T11:35:28;12.97;;;12.27;;
1136;SDS011;557;48.466;7.950;2023-03-29T11:38:25;11.80;;;11.30;;
1136;SDS011;557;48.466;7.950;2023-03-29T11:41:17;12.00;;;11.40;;
1136;SDS011;557;48.466;7.950;2023-03-29T11:44:09;12.70;;;12.10;;
1136;SDS011;557;48.466;7.950;2023-03-29T11:47:00;11.70;;;11.10;;
1136;SDS011;557;48.466;7.950;2023-03-29T11:49:52;11.80;;;11.20;;
1136;SDS011;557;48.466;7.950;2023-03-29T11:52:44;11.80;;;11.10;;
1136;SDS011;557;48.466;7.950;2023-03-29T11:55:35;11.80;;;11.20;;
1136;SDS011;557;48.466;7.950;2023-03-29T11:58:26;11.57;;;11.07;;
1136;SDS011;557;48.466;7.950;2023-03-29T12:01:20;11.60;;;10.90;;
1136;SDS011;557;48.466;7.950;2023-03-29T12:04:16;12.10;;;11.50;;
1136;SDS011;557;48.466;7.950;2023-03-29T12:07:11;12.53;;;12.00;;
1136;SDS011;557;48.466;7.950;2023-03-29T12:10:03;12.40;;;11.70;;
1136;SDS011;557;48.466;7.950;2023-03-29T12:12:59;11.93;;;11.40;;
1136;SDS011;557;48.466;7.950;2023-03-29T12:15:51;12.30;;;11.70;;
1136;SDS011;557;48.466;7.950;2023-03-29T12:18:43;12.30;;;11.50;;
1136;SDS011;557;48.466;7.950;2023-03-29T12:21:33;12.10;;;11.50;;
1136;SDS011;557;48.466;7.950;2023-03-29T12:24:22;11.67;;;11.10;;
1136;SDS011;557;48.466;7.950;2023-03-29T12:27:17;11.67;;;11.17;;
1136;SDS011;557;48.466;7.950;2023-03-29T12:33:44;13.07;;;12.43;;
1136;SDS011;557;48.466;7.950;2023-03-29T12:40:11;13.23;;;12.63;;
1136;SDS011;557;48.466;7.950;2023-03-29T12:43:02;13.43;;;12.83;;
1136;SDS011;557;48.466;7.950;2023-03-29T12:45:53;12.50;;;11.90;;
1136;SDS011;557;48.466;7.950;2023-03-29T12:48:44;12.60;;;12.00;;
1136;SDS011;557;48.466;7.950;2023-03-29T12:51:34;13.03;;;12.43;;
1136;SDS011;557;48.466;7.950;2023-03-29T12:54:26;13.23;;;12.53;;
1136;SDS011;557;48.466;7.950;2023-03-29T12:57:19;13.20;;;12.50;;
1136;SDS011;557;48.466;7.950;2023-03-29T13:00:19;12.70;;;12.10;;
1136;SDS011;557;48.466;7.950;2023-03-29T13:03:19;12.90;;;12.30;;
1136;SDS011;557;48.466;7.950;2023-03-29T13:06:08;12.57;;;11.97;;
1136;SDS011;557;48.466;7.950;2023-03-29T13:08:58;13.53;;;12.67;;
1136;SDS011;557;48.466;7.950;2023-03-29T13:11:50;13.23;;;12.43;;
1136;SDS011;557;48.466;7.950;2023-03-29T13:14:39;12.90;;;12.30;;
1136;SDS011;557;48.466;7.950;2023-03-29T13:17:33;12.50;;;11.90;;
1136;SDS011;557;48.466;7.950;2023-03-29T13:20:32;13.10;;;12.50;;
1136;SDS011;557;48.466;7.950;2023-03-29T13:23:32;13.30;;;12.60;;
1136;SDS011;557;48.466;7.950;2023-03-29T13:26:36;14.57;;;13.67;;
1136;SDS011;557;48.466;7.950;2023-03-29T13:29:37;13.93;;;13.20;;
1136;SDS011;557;48.466;7.950;2023-03-29T13:32:48;14.00;;;13.30;;
1136;SDS011;557;48.466;7.950;2023-03-29T13:35:44;13.47;;;12.87;;
1136;SDS011;557;48.466;7.950;2023-03-29T13:38:42;12.33;;;11.73;;
1136;SDS011;557;48.466;7.950;2023-03-29T13:41:32;13.07;;;12.47;;
1136;SDS011;557;48.466;7.950;2023-03-29T13:44:37;13.57;;;12.97;;
1136;SDS011;557;48.466;7.950;2023-03-29T13:47:39;14.07;;;13.40;;
1136;SDS011;557;48.466;7.950;2023-03-29T13:50:33;14.03;;;13.33;;
1136;SDS011;557;48.466;7.950;2023-03-29T13:53:25;13.90;;;13.30;;
1136;SDS011;557;48.466;7.950;2023-03-29T13:56:17;13.67;;;13.07;;
1136;SDS011;557;48.466;7.950;2023-03-29T13:59:11;13.27;;;12.67;;
1136;SDS011;557;48.466;7.950;2023-03-29T14:02:03;13.63;;;12.93;;
1136;SDS011;557;48.466;7.950;2023-03-29T14:04:51;14.37;;;13.57;;
1136;SDS011;557;48.466;7.950;2023-03-29T14:07:42;14.47;;;13.67;;
1136;SDS011;557;48.466;7.950;2023-03-29T14:10:33;14.00;;;13.20;;
1136;SDS011;557;48.466;7.950;2023-03-29T14:13:24;13.80;;;13.20;;
1136;SDS011;557;48.466;7.950;2023-03-29T14:16:12;14.00;;;13.17;;
1136;SDS011;557;48.466;7.950;2023-03-29T14:19:01;14.17;;;13.57;;
1136;SDS011;557;48.466;7.950;2023-03-29T14:21:50;14.53;;;13.83;;
1136;SDS011;557;48.466;7.950;2023-03-29T14:24:43;14.17;;;13.47;;
1136;SDS011;557;48.466;7.950;2023-03-29T14:27:34;14.53;;;13.83;;
1136;SDS011;557;48.466;7.950;2023-03-29T14:30:24;14.83;;;14.03;;
1136;SDS011;557;48.466;7.950;2023-03-29T14:33:13;14.53;;;13.83;;
1136;SDS011;557;48.466;7.950;2023-03-29T14:36:01;14.60;;;13.70;;
1136;SDS011;557;48.466;7.950;2023-03-29T14:38:50;14.57;;;13.87;;
1136;SDS011;557;48.466;7.950;2023-03-29T14:41:41;15.20;;;14.47;;
1136;SDS011;557;48.466;7.950;2023-03-29T14:44:34;14.03;;;13.40;;
1136;SDS011;557;48.466;7.950;2023-03-29T14:51:23;13.60;;;13.00;;
1136;SDS011;557;48.466;7.950;2023-03-29T14:54:16;13.70;;;13.10;;
1136;SDS011;557;48.466;7.950;2023-03-29T14:57:11;14.57;;;13.67;;
1136;SDS011;557;48.466;7.950;2023-03-29T15:00:01;13.50;;;12.90;;
1136;SDS011;557;48.466;7.950;2023-03-29T15:03:01;13.60;;;13.00;;
1136;SDS011;557;48.466;7.950;2023-03-29T15:05:49;13.90;;;13.20;;
1136;SDS011;557;48.466;7.950;2023-03-29T15:08:38;13.77;;;13.07;;
1136;SDS011;557;48.466;7.950;2023-03-29T15:11:27;13.40;;;12.80;;
1136;SDS011;557;48.466;7.950;2023-03-29T15:14:17;13.67;;;13.03;;
1136;SDS011;557;48.466;7.950;2023-03-29T15:17:14;15.40;;;14.03;;
1136;SDS011;557;48.466;7.950;2023-03-29T15:20:14;13.40;;;12.80;;
1136;SDS011;557;48.466;7.950;2023-03-29T15:23:18;13.80;;;13.10;;
1136;SDS011;557;48.466;7.950;2023-03-29T15:26:11;14.13;;;13.30;;
1136;SDS011;557;48.466;7.950;2023-03-29T15:29:01;14.30;;;13.50;;
1136;SDS011;557;48.466;7.950;2023-03-29T15:31:54;13.90;;;13.20;;
1136;SDS011;557;48.466;7.950;2023-03-29T15:34:43;13.70;;;12.90;;
1136;SDS011;557;48.466;7.950;2023-03-29T15:37:30;14.27;;;13.20;;
1136;SDS011;557;48.466;7.950;2023-03-29T15:40:18;13.80;;;13.10;;
1136;SDS011;557;48.466;7.950;2023-03-29T15:43:09;13.70;;;13.00;;
1136;SDS011;557;48.466;7.950;2023-03-29T15:45:57;13.50;;;12.80;;
1136;SDS011;557;48.466;7.950;2023-03-29T15:48:45;13.70;;;13.00;;
1136;SDS011;557;48.466;7.950;2023-03-29T15:51:33;14.53;;;13.77;;
1136;SDS011;557;48.466;7.950;2023-03-29T15:54:20;14.97;;;14.07;;
1136;SDS011;557;48.466;7.950;2023-03-29T15:57:10;14.80;;;14.00;;
1136;SDS011;557;48.466;7.950;2023-03-29T16:00:00;14.43;;;13.63;;
1136;SDS011;557;48.466;7.950;2023-03-29T16:02:49;13.63;;;12.70;;
1136;SDS011;557;48.466;7.950;2023-03-29T16:05:38;14.23;;;13.43;;
1136;SDS011;557;48.466;7.950;2023-03-29T16:08:26;13.07;;;12.37;;
1136;SDS011;557;48.466;7.950;2023-03-29T16:11:13;13.30;;;12.60;;
1136;SDS011;557;48.466;7.950;2023-03-29T16:14:00;12.40;;;11.80;;
1136;SDS011;557;48.466;7.950;2023-03-29T16:16:48;13.37;;;12.70;;
1136;SDS011;557;48.466;7.950;2023-03-29T16:19:35;13.57;;;12.77;;
1136;SDS011;557;48.466;7.950;2023-03-29T16:22:24;12.83;;;12.23;;
1136;SDS011;557;48.466;7.950;2023-03-29T16:25:12;13.03;;;12.30;;
1136;SDS011;557;48.466;7.950;2023-03-29T16:28:00;12.90;;;12.30;;
1136;SDS011;557;48.466;7.950;2023-03-29T16:30:47;13.20;;;12.50;;
1136;SDS011;557;48.466;7.950;2023-03-29T16:33:34;13.67;;;12.87;;
1136;SDS011;557;48.466;7.950;2023-03-29T16:36:22;13.40;;;12.70;;
1136;SDS011;557;48.466;7.950;2023-03-29T16:39:11;13.43;;;12.50;;
1136;SDS011;557;48.466;7.950;2023-03-29T16:41:58;49.40;;;39.30;;
1136;SDS011;557;48.466;7.950;2023-03-29T16:44:45;18.93;;;17.43;;
1136;SDS011;557;48.466;7.950;2023-03-29T16:47:33;13.60;;;12.80;;
1136;SDS011;557;48.466;7.950;2023-03-29T16:50:21;13.13;;;12.50;;
1136;SDS011;557;48.466;7.950;2023-03-29T16:53:08;13.27;;;12.50;;
1136;SDS011;557;48.466;7.950;2023-03-29T16:55:57;15.27;;;14.30;;
1136;SDS011;557;48.466;7.950;2023-03-29T16:58:44;13.70;;;12.80;;
1136;SDS011;557;48.466;7.950;2023-03-29T17:01:32;13.03;;;12.33;;
1136;SDS011;557;48.466;7.950;2023-03-29T17:04:20;12.30;;;11.70;;
1136;SDS011;557;48.466;7.950;2023-03-29T17:07:07;13.97;;;12.70;;
1136;SDS011;557;48.466;7.950;2023-03-29T17:09:55;13.00;;;12.20;;
1136;SDS011;557;48.466;7.950;2023-03-29T17:12:43;13.90;;;13.00;;
1136;SDS011;557;48.466;7.950;2023-03-29T17:15:31;12.77;;;12.00;;
1136;SDS011;557;48.466;7.950;2023-03-29T17:18:18;12.63;;;11.90;;
1136;SDS011;557;48.466;7.950;2023-03-29T17:21:06;13.60;;;12.90;;
1136;SDS011;557;48.466;7.950;2023-03-29T17:23:56;12.37;;;11.77;;
1136;SDS011;557;48.466;7.950;2023-03-29T17:26:43;13.13;;;12.43;;
1136;SDS011;557;48.466;7.950;2023-03-29T17:29:32;35.03;;;27.80;;
1136;SDS011;557;48.466;7.950;2023-03-29T17:32:19;15.27;;;14.30;;
1136;SDS011;557;48.466;7.950;2023-03-29T17:35:07;12.73;;;11.93;;
1136;SDS011;557;48.466;7.950;2023-03-29T17:37:55;12.60;;;12.00;;
1136;SDS011;557;48.466;7.950;2023-03-29T17:40:43;12.40;;;11.80;;
1136;SDS011;557;48.466;7.950;2023-03-29T17:43:36;12.53;;;11.80;;
1136;SDS011;557;48.466;7.950;2023-03-29T17:46:25;13.30;;;12.60;;
1136;SDS011;557;48.466;7.950;2023-03-29T17:49:12;13.33;;;12.43;;
1136;SDS011;557;48.466;7.950;2023-03-29T17:52:00;12.80;;;12.00;;
1136;SDS011;557;48.466;7.950;2023-03-29T17:54:47;12.73;;;12.00;;
1136;SDS011;557;48.466;7.950;2023-03-29T17:57:35;12.53;;;11.73;;